sensor_id;sensor_type;location;lat;lon;timestamp;temperature;humidity
25450;DHT22;13371;52.080;5.624;2023-05-29T00:01:07;12.40;99.90
25450;DHT22;13371;52.080;5.624;2023-05-29T00:03:34;12.30;99.90
25450;DHT22;13371;52.080;5.624;2023-05-29T00:06:02;12.30;99.90
25450;DHT22;13371;52.080;5.624;2023-05-29T00:08:28;12.30;99.90
25450;DHT22;13371;52.080;5.624;2023-05-29T00:10:54;12.40;99.90
25450;DHT22;13371;52.080;5.624;2023-05-29T00:13:19;12.40;99.90
25450;DHT22;13371;52.080;5.624;2023-05-29T00:15:46;12.10;99.90
25450;DHT22;13371;52.080;5.624;2023-05-29T00:18:11;12.30;99.90
25450;DHT22;13371;52.080;5.624;2023-05-29T00:20:37;12.30;99.90
25450;DHT22;13371;52.080;5.624;2023-05-29T00:23:03;12.30;99.90
25450;DHT22;13371;52.080;5.624;2023-05-29T00:25:31;12.10;99.90
25450;DHT22;13371;52.080;5.624;2023-05-29T00:27:57;12.30;99.90
25450;DHT22;13371;52.080;5.624;2023-05-29T00:30:23;12.30;99.90
25450;DHT22;13371;52.080;5.624;2023-05-29T00:32:48;12.50;99.90
25450;DHT22;13371;52.080;5.624;2023-05-29T00:35:14;12.40;99.90
25450;DHT22;13371;52.080;5.624;2023-05-29T00:37:39;12.60;99.80
25450;DHT22;13371;52.080;5.624;2023-05-29T00:40:06;12.50;99.70
25450;DHT22;13371;52.080;5.624;2023-05-29T00:42:31;12.50;99.70
25450;DHT22;13371;52.080;5.624;2023-05-29T00:44:57;12.30;99.80
25450;DHT22;13371;52.080;5.624;2023-05-29T00:47:23;12.20;99.90
25450;DHT22;13371;52.080;5.624;2023-05-29T00:49:49;12.40;99.90
25450;DHT22;13371;52.080;5.624;2023-05-29T00:52:16;12.50;99.90
25450;DHT22;13371;52.080;5.624;2023-05-29T00:54:44;12.40;99.70
25450;DHT22;13371;52.080;5.624;2023-05-29T00:57:10;12.20;99.90
25450;DHT22;13371;52.080;5.624;2023-05-29T00:59:37;12.30;99.90
25450;DHT22;13371;52.080;5.624;2023-05-29T01:02:03;12.50;99.90
25450;DHT22;13371;52.080;5.624;2023-05-29T01:04:29;12.30;99.80
25450;DHT22;13371;52.080;5.624;2023-05-29T01:06:59;12.00;99.90
25450;DHT22;13371;52.080;5.624;2023-05-29T01:09:25;12.30;99.90
25450;DHT22;13371;52.080;5.624;2023-05-29T01:12:16;12.30;99.40
25450;DHT22;13371;52.080;5.624;2023-05-29T01:14:52;12.10;99.90
25450;DHT22;13371;52.080;5.624;2023-05-29T01:20:51;12.20;99.90
25450;DHT22;13371;52.080;5.624;2023-05-29T01:28:39;12.40;99.60
25450;DHT22;13371;52.080;5.624;2023-05-29T01:31:07;12.50;98.90
25450;DHT22;13371;52.080;5.624;2023-05-29T01:33:33;12.50;99.00
25450;DHT22;13371;52.080;5.624;2023-05-29T01:35:58;12.70;98.60
25450;DHT22;13371;52.080;5.624;2023-05-29T01:38:24;12.60;98.60
25450;DHT22;13371;52.080;5.624;2023-05-29T01:40:50;12.60;98.50
25450;DHT22;13371;52.080;5.624;2023-05-29T01:43:16;12.50;98.30
25450;DHT22;13371;52.080;5.624;2023-05-29T01:45:42;12.50;99.00
25450;DHT22;13371;52.080;5.624;2023-05-29T01:48:08;12.60;98.70
25450;DHT22;13371;52.080;5.624;2023-05-29T01:50:34;12.40;98.70
25450;DHT22;13371;52.080;5.624;2023-05-29T01:53:00;12.10;99.30
25450;DHT22;13371;52.080;5.624;2023-05-29T01:55:26;12.40;99.10
25450;DHT22;13371;52.080;5.624;2023-05-29T01:57:51;12.20;98.90
25450;DHT22;13371;52.080;5.624;2023-05-29T02:00:17;12.10;98.60
25450;DHT22;13371;52.080;5.624;2023-05-29T02:02:44;12.20;99.00
25450;DHT22;13371;52.080;5.624;2023-05-29T02:05:10;12.20;99.00
25450;DHT22;13371;52.080;5.624;2023-05-29T02:07:36;12.10;98.90
25450;DHT22;13371;52.080;5.624;2023-05-29T02:10:07;11.80;99.50
25450;DHT22;13371;52.080;5.624;2023-05-29T02:12:32;11.90;99.40
25450;DHT22;13371;52.080;5.624;2023-05-29T02:14:58;11.90;99.70
25450;DHT22;13371;52.080;5.624;2023-05-29T02:17:23;11.60;99.90
25450;DHT22;13371;52.080;5.624;2023-05-29T02:19:49;11.70;99.70
25450;DHT22;13371;52.080;5.624;2023-05-29T02:22:16;11.70;99.90
25450;DHT22;13371;52.080;5.624;2023-05-29T02:24:42;11.50;99.90
25450;DHT22;13371;52.080;5.624;2023-05-29T02:27:08;11.50;99.90
25450;DHT22;13371;52.080;5.624;2023-05-29T02:29:34;11.70;99.80
25450;DHT22;13371;52.080;5.624;2023-05-29T02:32:00;11.60;99.80
25450;DHT22;13371;52.080;5.624;2023-05-29T02:34:25;11.50;99.90
25450;DHT22;13371;52.080;5.624;2023-05-29T02:36:52;11.80;99.20
25450;DHT22;13371;52.080;5.624;2023-05-29T02:39:18;11.70;99.40
25450;DHT22;13371;52.080;5.624;2023-05-29T02:41:44;11.90;99.00
25450;DHT22;13371;52.080;5.624;2023-05-29T02:44:10;11.80;98.60
25450;DHT22;13371;52.080;5.624;2023-05-29T02:46:35;12.00;98.90
25450;DHT22;13371;52.080;5.624;2023-05-29T02:49:01;11.90;98.60
25450;DHT22;13371;52.080;5.624;2023-05-29T02:51:27;11.70;98.80
25450;DHT22;13371;52.080;5.624;2023-05-29T02:53:53;11.40;99.70
25450;DHT22;13371;52.080;5.624;2023-05-29T02:56:19;11.50;99.30
25450;DHT22;13371;52.080;5.624;2023-05-29T02:58:49;11.40;99.50
25450;DHT22;13371;52.080;5.624;2023-05-29T03:01:15;11.70;99.80
25450;DHT22;13371;52.080;5.624;2023-05-29T03:03:40;11.90;98.90
25450;DHT22;13371;52.080;5.624;2023-05-29T03:06:06;11.60;99.10
25450;DHT22;13371;52.080;5.624;2023-05-29T03:08:31;11.60;99.30
25450;DHT22;13371;52.080;5.624;2023-05-29T03:10:58;11.30;99.50
25450;DHT22;13371;52.080;5.624;2023-05-29T03:13:24;11.10;99.90
25450;DHT22;13371;52.080;5.624;2023-05-29T03:15:50;11.20;99.90
25450;DHT22;13371;52.080;5.624;2023-05-29T03:18:16;11.00;99.90
25450;DHT22;13371;52.080;5.624;2023-05-29T03:20:42;10.90;99.90
25450;DHT22;13371;52.080;5.624;2023-05-29T03:23:07;10.80;99.90
25450;DHT22;13371;52.080;5.624;2023-05-29T03:25:33;11.10;99.90
25450;DHT22;13371;52.080;5.624;2023-05-29T03:27:58;11.50;99.60
25450;DHT22;13371;52.080;5.624;2023-05-29T03:30:24;11.10;99.80
25450;DHT22;13371;52.080;5.624;2023-05-29T03:32:49;11.00;99.90
25450;DHT22;13371;52.080;5.624;2023-05-29T03:35:15;10.90;99.90
25450;DHT22;13371;52.080;5.624;2023-05-29T03:37:41;11.00;99.90
25450;DHT22;13371;52.080;5.624;2023-05-29T03:40:07;11.00;99.90
25450;DHT22;13371;52.080;5.624;2023-05-29T03:42:33;11.00;99.90
25450;DHT22;13371;52.080;5.624;2023-05-29T03:44:59;11.00;99.90
25450;DHT22;13371;52.080;5.624;2023-05-29T03:47:25;10.80;99.90
25450;DHT22;13371;52.080;5.624;2023-05-29T03:49:50;10.80;99.90
25450;DHT22;13371;52.080;5.624;2023-05-29T03:52:16;10.80;99.90
25450;DHT22;13371;52.080;5.624;2023-05-29T03:54:42;10.90;99.90
25450;DHT22;13371;52.080;5.624;2023-05-29T03:57:07;10.70;99.90
25450;DHT22;13371;52.080;5.624;2023-05-29T03:59:34;10.70;99.90
25450;DHT22;13371;52.080;5.624;2023-05-29T04:02:00;10.70;99.90
25450;DHT22;13371;52.080;5.624;2023-05-29T04:04:25;10.60;99.90
25450;DHT22;13371;52.080;5.624;2023-05-29T04:06:52;10.70;99.90
25450;DHT22;13371;52.080;5.624;2023-05-29T04:09:17;10.80;99.90
25450;DHT22;13371;52.080;5.624;2023-05-29T04:11:43;10.90;99.90
25450;DHT22;13371;52.080;5.624;2023-05-29T04:14:10;10.60;99.90
25450;DHT22;13371;52.080;5.624;2023-05-29T04:16:35;10.80;99.90
25450;DHT22;13371;52.080;5.624;2023-05-29T04:19:01;10.90;99.90
25450;DHT22;13371;52.080;5.624;2023-05-29T04:21:26;10.80;99.90
25450;DHT22;13371;52.080;5.624;2023-05-29T04:23:52;10.90;99.90
25450;DHT22;13371;52.080;5.624;2023-05-29T04:26:21;11.00;99.90
25450;DHT22;13371;52.080;5.624;2023-05-29T04:28:50;10.80;99.90
25450;DHT22;13371;52.080;5.624;2023-05-29T04:31:17;10.40;99.90
25450;DHT22;13371;52.080;5.624;2023-05-29T04:33:43;10.70;99.90
25450;DHT22;13371;52.080;5.624;2023-05-29T04:36:10;10.80;99.90
25450;DHT22;13371;52.080;5.624;2023-05-29T04:38:36;10.90;99.90
25450;DHT22;13371;52.080;5.624;2023-05-29T04:41:02;10.90;99.90
25450;DHT22;13371;52.080;5.624;2023-05-29T04:43:28;10.60;99.90
25450;DHT22;13371;52.080;5.624;2023-05-29T04:45:53;10.50;99.90
25450;DHT22;13371;52.080;5.624;2023-05-29T04:48:20;10.40;99.90
25450;DHT22;13371;52.080;5.624;2023-05-29T04:50:45;10.50;99.90
25450;DHT22;13371;52.080;5.624;2023-05-29T04:53:11;10.70;99.90
25450;DHT22;13371;52.080;5.624;2023-05-29T04:55:37;10.60;99.90
25450;DHT22;13371;52.080;5.624;2023-05-29T04:58:02;10.90;99.90
25450;DHT22;13371;52.080;5.624;2023-05-29T05:00:28;10.70;99.90
25450;DHT22;13371;52.080;5.624;2023-05-29T05:02:54;10.80;99.90
25450;DHT22;13371;52.080;5.624;2023-05-29T05:05:20;10.80;99.90
25450;DHT22;13371;52.080;5.624;2023-05-29T05:07:46;10.60;99.90
25450;DHT22;13371;52.080;5.624;2023-05-29T05:10:11;10.30;99.90
25450;DHT22;13371;52.080;5.624;2023-05-29T05:12:37;10.40;99.90
25450;DHT22;13371;52.080;5.624;2023-05-29T05:15:03;10.40;99.90
25450;DHT22;13371;52.080;5.624;2023-05-29T05:17:29;10.90;99.90
25450;DHT22;13371;52.080;5.624;2023-05-29T05:19:55;10.80;99.90
25450;DHT22;13371;52.080;5.624;2023-05-29T05:22:21;11.10;99.90
25450;DHT22;13371;52.080;5.624;2023-05-29T05:24:46;10.90;99.90
25450;DHT22;13371;52.080;5.624;2023-05-29T05:27:12;10.90;99.90
25450;DHT22;13371;52.080;5.624;2023-05-29T05:29:38;11.00;99.90
25450;DHT22;13371;52.080;5.624;2023-05-29T05:32:04;11.40;99.70
25450;DHT22;13371;52.080;5.624;2023-05-29T05:34:29;11.40;99.60
25450;DHT22;13371;52.080;5.624;2023-05-29T05:36:55;11.50;99.30
25450;DHT22;13371;52.080;5.624;2023-05-29T05:39:21;11.30;99.30
25450;DHT22;13371;52.080;5.624;2023-05-29T05:41:46;11.30;99.70
25450;DHT22;13371;52.080;5.624;2023-05-29T05:44:12;11.20;99.50
25450;DHT22;13371;52.080;5.624;2023-05-29T05:46:37;11.30;99.40
25450;DHT22;13371;52.080;5.624;2023-05-29T05:49:03;11.40;99.40
25450;DHT22;13371;52.080;5.624;2023-05-29T05:51:28;11.50;99.20
25450;DHT22;13371;52.080;5.624;2023-05-29T05:53:54;11.90;98.90
25450;DHT22;13371;52.080;5.624;2023-05-29T05:56:20;11.90;98.80
25450;DHT22;13371;52.080;5.624;2023-05-29T05:58:45;11.80;98.40
25450;DHT22;13371;52.080;5.624;2023-05-29T06:01:11;12.10;98.30
25450;DHT22;13371;52.080;5.624;2023-05-29T06:03:36;12.00;98.20
25450;DHT22;13371;52.080;5.624;2023-05-29T06:06:03;12.30;97.70
25450;DHT22;13371;52.080;5.624;2023-05-29T06:08:29;12.40;97.30
25450;DHT22;13371;52.080;5.624;2023-05-29T06:10:56;12.30;96.60
25450;DHT22;13371;52.080;5.624;2023-05-29T06:13:21;12.40;97.20
25450;DHT22;13371;52.080;5.624;2023-05-29T06:15:47;12.60;97.20
25450;DHT22;13371;52.080;5.624;2023-05-29T06:18:12;12.50;95.90
25450;DHT22;13371;52.080;5.624;2023-05-29T06:20:38;12.30;96.20
25450;DHT22;13371;52.080;5.624;2023-05-29T06:23:03;12.50;96.90
25450;DHT22;13371;52.080;5.624;2023-05-29T06:25:30;12.70;95.80
25450;DHT22;13371;52.080;5.624;2023-05-29T06:27:59;12.60;95.70
25450;DHT22;13371;52.080;5.624;2023-05-29T06:30:25;12.60;95.70
25450;DHT22;13371;52.080;5.624;2023-05-29T06:32:51;12.80;95.60
25450;DHT22;13371;52.080;5.624;2023-05-29T06:35:16;12.60;94.80
25450;DHT22;13371;52.080;5.624;2023-05-29T06:37:42;12.90;95.50
25450;DHT22;13371;52.080;5.624;2023-05-29T06:40:08;13.10;95.00
25450;DHT22;13371;52.080;5.624;2023-05-29T06:42:33;13.20;94.70
25450;DHT22;13371;52.080;5.624;2023-05-29T06:44:59;13.20;93.90
25450;DHT22;13371;52.080;5.624;2023-05-29T06:47:25;13.20;94.20
25450;DHT22;13371;52.080;5.624;2023-05-29T06:49:50;13.20;94.20
25450;DHT22;13371;52.080;5.624;2023-05-29T06:52:16;13.30;94.80
25450;DHT22;13371;52.080;5.624;2023-05-29T06:54:41;13.60;94.40
25450;DHT22;13371;52.080;5.624;2023-05-29T06:57:07;13.70;92.80
25450;DHT22;13371;52.080;5.624;2023-05-29T06:59:33;13.50;93.20
25450;DHT22;13371;52.080;5.624;2023-05-29T07:01:58;13.50;93.40
25450;DHT22;13371;52.080;5.624;2023-05-29T07:04:24;13.70;92.90
25450;DHT22;13371;52.080;5.624;2023-05-29T07:06:50;13.50;93.00
25450;DHT22;13371;52.080;5.624;2023-05-29T07:09:16;13.70;93.00
25450;DHT22;13371;52.080;5.624;2023-05-29T07:11:42;13.70;92.30
25450;DHT22;13371;52.080;5.624;2023-05-29T07:14:08;14.00;92.90
25450;DHT22;13371;52.080;5.624;2023-05-29T07:16:33;13.90;92.50
25450;DHT22;13371;52.080;5.624;2023-05-29T07:18:59;14.00;92.20
25450;DHT22;13371;52.080;5.624;2023-05-29T07:21:25;13.80;92.00
25450;DHT22;13371;52.080;5.624;2023-05-29T07:23:50;13.70;92.60
25450;DHT22;13371;52.080;5.624;2023-05-29T07:26:16;13.90;92.50
25450;DHT22;13371;52.080;5.624;2023-05-29T07:28:41;14.40;93.40
25450;DHT22;13371;52.080;5.624;2023-05-29T07:31:07;14.70;91.30
25450;DHT22;13371;52.080;5.624;2023-05-29T07:33:32;14.90;91.90
25450;DHT22;13371;52.080;5.624;2023-05-29T07:35:58;15.00;91.80
25450;DHT22;13371;52.080;5.624;2023-05-29T07:38:24;15.10;91.00
25450;DHT22;13371;52.080;5.624;2023-05-29T07:40:49;15.50;91.50
25450;DHT22;13371;52.080;5.624;2023-05-29T07:43:15;15.40;90.20
25450;DHT22;13371;52.080;5.624;2023-05-29T07:45:40;15.10;90.40
25450;DHT22;13371;52.080;5.624;2023-05-29T07:48:06;15.10;90.50
25450;DHT22;13371;52.080;5.624;2023-05-29T07:50:32;15.20;89.80
25450;DHT22;13371;52.080;5.624;2023-05-29T07:52:57;15.40;90.50
25450;DHT22;13371;52.080;5.624;2023-05-29T07:55:23;15.30;90.80
25450;DHT22;13371;52.080;5.624;2023-05-29T07:57:48;15.30;90.30
25450;DHT22;13371;52.080;5.624;2023-05-29T08:00:15;15.50;88.80
25450;DHT22;13371;52.080;5.624;2023-05-29T08:02:41;15.60;89.50
25450;DHT22;13371;52.080;5.624;2023-05-29T08:05:08;15.50;88.60
25450;DHT22;13371;52.080;5.624;2023-05-29T08:07:34;15.70;87.80
25450;DHT22;13371;52.080;5.624;2023-05-29T08:10:00;15.60;88.10
25450;DHT22;13371;52.080;5.624;2023-05-29T08:12:25;15.70;87.20
25450;DHT22;13371;52.080;5.624;2023-05-29T08:14:51;15.90;86.70
25450;DHT22;13371;52.080;5.624;2023-05-29T08:17:17;16.00;89.30
25450;DHT22;13371;52.080;5.624;2023-05-29T08:19:42;16.10;87.50
25450;DHT22;13371;52.080;5.624;2023-05-29T08:22:11;16.40;86.40
25450;DHT22;13371;52.080;5.624;2023-05-29T08:24:37;16.80;88.70
25450;DHT22;13371;52.080;5.624;2023-05-29T08:27:03;17.00;84.90
25450;DHT22;13371;52.080;5.624;2023-05-29T08:29:28;17.00;82.00
25450;DHT22;13371;52.080;5.624;2023-05-29T08:31:54;16.90;85.00
25450;DHT22;13371;52.080;5.624;2023-05-29T08:34:20;16.80;82.10
25450;DHT22;13371;52.080;5.624;2023-05-29T08:36:45;16.70;85.10
25450;DHT22;13371;52.080;5.624;2023-05-29T08:39:11;16.60;81.50
25450;DHT22;13371;52.080;5.624;2023-05-29T08:42:01;16.40;85.20
25450;DHT22;13371;52.080;5.624;2023-05-29T08:44:31;16.50;86.60
25450;DHT22;13371;52.080;5.624;2023-05-29T08:47:03;16.60;82.10
25450;DHT22;13371;52.080;5.624;2023-05-29T08:49:42;16.50;82.50
25450;DHT22;13371;52.080;5.624;2023-05-29T08:52:27;16.80;82.10
25450;DHT22;13371;52.080;5.624;2023-05-29T08:54:55;16.90;82.70
25450;DHT22;13371;52.080;5.624;2023-05-29T08:57:22;16.90;82.70
25450;DHT22;13371;52.080;5.624;2023-05-29T08:59:51;16.90;81.80
25450;DHT22;13371;52.080;5.624;2023-05-29T09:02:17;17.00;84.00
25450;DHT22;13371;52.080;5.624;2023-05-29T09:04:43;17.30;80.40
25450;DHT22;13371;52.080;5.624;2023-05-29T09:07:15;17.40;83.10
25450;DHT22;13371;52.080;5.624;2023-05-29T09:09:40;17.60;79.60
25450;DHT22;13371;52.080;5.624;2023-05-29T09:12:07;17.40;78.60
25450;DHT22;13371;52.080;5.624;2023-05-29T09:17:03;17.20;77.70
25450;DHT22;13371;52.080;5.624;2023-05-29T09:19:29;17.20;81.80
25450;DHT22;13371;52.080;5.624;2023-05-29T09:22:28;17.80;82.70
25450;DHT22;13371;52.080;5.624;2023-05-29T09:24:58;18.00;79.80
25450;DHT22;13371;52.080;5.624;2023-05-29T09:27:24;18.00;79.70
25450;DHT22;13371;52.080;5.624;2023-05-29T09:29:52;17.90;80.50
25450;DHT22;13371;52.080;5.624;2023-05-29T09:32:26;18.20;78.60
25450;DHT22;13371;52.080;5.624;2023-05-29T09:35:00;17.80;76.50
25450;DHT22;13371;52.080;5.624;2023-05-29T09:37:25;17.90;80.80
25450;DHT22;13371;52.080;5.624;2023-05-29T09:39:51;18.30;78.90
25450;DHT22;13371;52.080;5.624;2023-05-29T09:42:20;18.30;77.20
25450;DHT22;13371;52.080;5.624;2023-05-29T09:44:49;18.30;78.80
25450;DHT22;13371;52.080;5.624;2023-05-29T09:47:19;18.30;77.50
25450;DHT22;13371;52.080;5.624;2023-05-29T09:49:45;18.70;77.70
25450;DHT22;13371;52.080;5.624;2023-05-29T09:52:15;18.70;74.90
25450;DHT22;13371;52.080;5.624;2023-05-29T09:54:55;18.30;75.00
25450;DHT22;13371;52.080;5.624;2023-05-29T09:57:23;18.10;75.10
25450;DHT22;13371;52.080;5.624;2023-05-29T09:59:52;18.40;75.80
25450;DHT22;13371;52.080;5.624;2023-05-29T10:02:21;18.80;77.40
25450;DHT22;13371;52.080;5.624;2023-05-29T10:04:55;19.00;76.50
25450;DHT22;13371;52.080;5.624;2023-05-29T10:07:28;18.60;76.10
25450;DHT22;13371;52.080;5.624;2023-05-29T10:10:06;18.40;74.60
25450;DHT22;13371;52.080;5.624;2023-05-29T10:12:37;18.20;73.60
25450;DHT22;13371;52.080;5.624;2023-05-29T10:15:12;18.30;78.10
25450;DHT22;13371;52.080;5.624;2023-05-29T10:18:07;18.70;76.00
25450;DHT22;13371;52.080;5.624;2023-05-29T10:20:37;18.80;72.60
25450;DHT22;13371;52.080;5.624;2023-05-29T10:23:04;18.30;72.90
25450;DHT22;13371;52.080;5.624;2023-05-29T10:25:32;18.50;76.20
25450;DHT22;13371;52.080;5.624;2023-05-29T10:27:59;18.80;75.00
25450;DHT22;13371;52.080;5.624;2023-05-29T10:35:58;18.30;73.90
25450;DHT22;13371;52.080;5.624;2023-05-29T10:38:26;18.60;74.50
25450;DHT22;13371;52.080;5.624;2023-05-29T10:40:55;18.60;73.00
25450;DHT22;13371;52.080;5.624;2023-05-29T10:43:30;18.80;74.30
25450;DHT22;13371;52.080;5.624;2023-05-29T10:46:02;19.10;73.90
25450;DHT22;13371;52.080;5.624;2023-05-29T10:48:35;18.80;75.40
25450;DHT22;13371;52.080;5.624;2023-05-29T10:51:02;18.70;72.10
25450;DHT22;13371;52.080;5.624;2023-05-29T10:53:31;19.10;73.20
25450;DHT22;13371;52.080;5.624;2023-05-29T10:55:59;19.40;75.40
25450;DHT22;13371;52.080;5.624;2023-05-29T10:58:25;19.60;72.40
25450;DHT22;13371;52.080;5.624;2023-05-29T11:00:52;19.40;71.80
25450;DHT22;13371;52.080;5.624;2023-05-29T11:03:30;19.40;74.80
25450;DHT22;13371;52.080;5.624;2023-05-29T11:08:32;19.30;74.30
25450;DHT22;13371;52.080;5.624;2023-05-29T11:10:58;19.10;71.00
25450;DHT22;13371;52.080;5.624;2023-05-29T11:13:34;19.20;71.70
25450;DHT22;13371;52.080;5.624;2023-05-29T11:18:52;19.00;72.80
25450;DHT22;13371;52.080;5.624;2023-05-29T11:23:53;19.70;73.90
25450;DHT22;13371;52.080;5.624;2023-05-29T11:26:20;19.60;71.10
25450;DHT22;13371;52.080;5.624;2023-05-29T11:28:46;19.60;69.20
25450;DHT22;13371;52.080;5.624;2023-05-29T11:31:12;19.70;71.10
25450;DHT22;13371;52.080;5.624;2023-05-29T11:33:47;19.80;71.30
25450;DHT22;13371;52.080;5.624;2023-05-29T11:36:14;20.00;69.70
25450;DHT22;13371;52.080;5.624;2023-05-29T11:38:40;20.30;71.60
25450;DHT22;13371;52.080;5.624;2023-05-29T11:41:05;20.60;69.60
25450;DHT22;13371;52.080;5.624;2023-05-29T11:43:31;20.40;67.30
25450;DHT22;13371;52.080;5.624;2023-05-29T11:45:57;20.10;66.80
25450;DHT22;13371;52.080;5.624;2023-05-29T11:48:23;20.20;67.00
25450;DHT22;13371;52.080;5.624;2023-05-29T11:50:49;20.10;67.80
25450;DHT22;13371;52.080;5.624;2023-05-29T11:53:15;20.40;71.10
25450;DHT22;13371;52.080;5.624;2023-05-29T11:55:41;20.70;71.20
25450;DHT22;13371;52.080;5.624;2023-05-29T11:58:06;20.70;68.40
25450;DHT22;13371;52.080;5.624;2023-05-29T12:00:37;20.40;68.50
25450;DHT22;13371;52.080;5.624;2023-05-29T12:03:04;20.40;67.20
25450;DHT22;13371;52.080;5.624;2023-05-29T12:05:31;20.30;65.10
25450;DHT22;13371;52.080;5.624;2023-05-29T12:07:57;20.10;66.20
25450;DHT22;13371;52.080;5.624;2023-05-29T12:10:23;20.40;68.50
25450;DHT22;13371;52.080;5.624;2023-05-29T12:12:53;20.80;69.80
25450;DHT22;13371;52.080;5.624;2023-05-29T12:15:19;20.90;68.80
25450;DHT22;13371;52.080;5.624;2023-05-29T12:17:45;21.00;70.80
25450;DHT22;13371;52.080;5.624;2023-05-29T12:20:13;21.10;62.20
25450;DHT22;13371;52.080;5.624;2023-05-29T12:22:40;20.70;58.60
25450;DHT22;13371;52.080;5.624;2023-05-29T12:27:44;20.60;64.90
25450;DHT22;13371;52.080;5.624;2023-05-29T12:30:21;20.80;67.50
25450;DHT22;13371;52.080;5.624;2023-05-29T12:32:49;20.90;65.60
25450;DHT22;13371;52.080;5.624;2023-05-29T12:35:18;21.10;67.50
25450;DHT22;13371;52.080;5.624;2023-05-29T12:37:49;21.00;67.20
25450;DHT22;13371;52.080;5.624;2023-05-29T12:40:21;21.00;67.50
25450;DHT22;13371;52.080;5.624;2023-05-29T12:42:48;20.70;67.20
25450;DHT22;13371;52.080;5.624;2023-05-29T12:45:14;20.60;64.90
25450;DHT22;13371;52.080;5.624;2023-05-29T12:47:51;20.10;64.60
25450;DHT22;13371;52.080;5.624;2023-05-29T12:52:57;20.70;68.80
25450;DHT22;13371;52.080;5.624;2023-05-29T12:55:23;21.00;69.50
25450;DHT22;13371;52.080;5.624;2023-05-29T12:57:48;21.30;68.20
25450;DHT22;13371;52.080;5.624;2023-05-29T13:00:14;21.30;68.10
25450;DHT22;13371;52.080;5.624;2023-05-29T13:02:40;21.50;65.70
25450;DHT22;13371;52.080;5.624;2023-05-29T13:05:06;21.30;63.50
25450;DHT22;13371;52.080;5.624;2023-05-29T13:07:35;21.40;64.80
25450;DHT22;13371;52.080;5.624;2023-05-29T13:10:00;21.10;62.70
25450;DHT22;13371;52.080;5.624;2023-05-29T13:12:27;21.30;65.50
25450;DHT22;13371;52.080;5.624;2023-05-29T13:14:53;21.40;69.00
25450;DHT22;13371;52.080;5.624;2023-05-29T13:17:21;21.70;67.40
25450;DHT22;13371;52.080;5.624;2023-05-29T13:19:47;21.80;66.60
25450;DHT22;13371;52.080;5.624;2023-05-29T13:22:13;21.30;64.50
25450;DHT22;13371;52.080;5.624;2023-05-29T13:24:38;20.80;67.30
25450;DHT22;13371;52.080;5.624;2023-05-29T13:27:04;21.00;68.50
25450;DHT22;13371;52.080;5.624;2023-05-29T13:29:31;21.10;67.50
25450;DHT22;13371;52.080;5.624;2023-05-29T13:31:56;20.70;67.60
25450;DHT22;13371;52.080;5.624;2023-05-29T13:34:22;20.60;69.50
25450;DHT22;13371;52.080;5.624;2023-05-29T13:36:51;20.70;68.20
25450;DHT22;13371;52.080;5.624;2023-05-29T13:39:16;20.60;65.10
25450;DHT22;13371;52.080;5.624;2023-05-29T13:41:42;20.70;66.70
25450;DHT22;13371;52.080;5.624;2023-05-29T13:44:07;20.60;65.50
25450;DHT22;13371;52.080;5.624;2023-05-29T13:46:33;20.50;67.10
25450;DHT22;13371;52.080;5.624;2023-05-29T13:48:58;20.60;67.70
25450;DHT22;13371;52.080;5.624;2023-05-29T13:51:24;20.60;69.80
25450;DHT22;13371;52.080;5.624;2023-05-29T13:53:49;21.00;70.00
25450;DHT22;13371;52.080;5.624;2023-05-29T13:56:15;20.70;66.40
25450;DHT22;13371;52.080;5.624;2023-05-29T13:58:41;20.70;69.70
25450;DHT22;13371;52.080;5.624;2023-05-29T14:01:06;20.90;68.30
25450;DHT22;13371;52.080;5.624;2023-05-29T14:03:32;20.90;66.50
25450;DHT22;13371;52.080;5.624;2023-05-29T14:05:58;20.90;68.40
25450;DHT22;13371;52.080;5.624;2023-05-29T14:08:24;21.20;70.50
25450;DHT22;13371;52.080;5.624;2023-05-29T14:10:49;20.90;65.60
25450;DHT22;13371;52.080;5.624;2023-05-29T14:13:16;20.60;65.30
25450;DHT22;13371;52.080;5.624;2023-05-29T14:15:41;20.50;67.00
25450;DHT22;13371;52.080;5.624;2023-05-29T14:18:07;21.00;66.40
25450;DHT22;13371;52.080;5.624;2023-05-29T14:20:33;21.20;64.80
25450;DHT22;13371;52.080;5.624;2023-05-29T14:22:59;21.00;65.90
25450;DHT22;13371;52.080;5.624;2023-05-29T14:25:24;21.30;65.90
25450;DHT22;13371;52.080;5.624;2023-05-29T14:27:50;21.60;68.30
25450;DHT22;13371;52.080;5.624;2023-05-29T14:30:17;21.90;64.40
25450;DHT22;13371;52.080;5.624;2023-05-29T14:32:42;22.10;62.30
25450;DHT22;13371;52.080;5.624;2023-05-29T14:35:09;22.00;64.60
25450;DHT22;13371;52.080;5.624;2023-05-29T14:37:34;21.90;62.80
25450;DHT22;13371;52.080;5.624;2023-05-29T14:40:01;21.40;65.90
25450;DHT22;13371;52.080;5.624;2023-05-29T14:42:26;21.60;70.20
25450;DHT22;13371;52.080;5.624;2023-05-29T14:44:52;21.50;68.60
25450;DHT22;13371;52.080;5.624;2023-05-29T14:47:17;21.50;63.30
25450;DHT22;13371;52.080;5.624;2023-05-29T14:49:44;21.00;63.20
25450;DHT22;13371;52.080;5.624;2023-05-29T14:52:10;20.50;65.10
25450;DHT22;13371;52.080;5.624;2023-05-29T14:54:35;20.80;66.20
25450;DHT22;13371;52.080;5.624;2023-05-29T14:57:01;20.80;63.60
25450;DHT22;13371;52.080;5.624;2023-05-29T14:59:27;20.80;67.40
25450;DHT22;13371;52.080;5.624;2023-05-29T15:01:52;20.70;65.10
25450;DHT22;13371;52.080;5.624;2023-05-29T15:04:19;20.90;67.10
25450;DHT22;13371;52.080;5.624;2023-05-29T15:06:45;21.10;68.70
25450;DHT22;13371;52.080;5.624;2023-05-29T15:09:11;21.30;67.40
25450;DHT22;13371;52.080;5.624;2023-05-29T15:11:36;21.10;64.10
25450;DHT22;13371;52.080;5.624;2023-05-29T15:14:02;21.00;65.10
25450;DHT22;13371;52.080;5.624;2023-05-29T15:16:27;20.90;65.00
25450;DHT22;13371;52.080;5.624;2023-05-29T15:18:53;20.80;65.50
25450;DHT22;13371;52.080;5.624;2023-05-29T15:21:18;20.60;64.50
25450;DHT22;13371;52.080;5.624;2023-05-29T15:23:44;20.60;66.00
25450;DHT22;13371;52.080;5.624;2023-05-29T15:26:10;20.70;66.10
25450;DHT22;13371;52.080;5.624;2023-05-29T15:28:35;20.70;65.50
25450;DHT22;13371;52.080;5.624;2023-05-29T15:31:01;20.80;67.30
25450;DHT22;13371;52.080;5.624;2023-05-29T15:33:27;20.90;65.80
25450;DHT22;13371;52.080;5.624;2023-05-29T15:35:52;20.80;65.70
25450;DHT22;13371;52.080;5.624;2023-05-29T15:38:18;21.00;67.10
25450;DHT22;13371;52.080;5.624;2023-05-29T15:40:44;21.10;65.20
25450;DHT22;13371;52.080;5.624;2023-05-29T15:43:10;20.80;65.00
25450;DHT22;13371;52.080;5.624;2023-05-29T15:45:36;21.00;66.70
25450;DHT22;13371;52.080;5.624;2023-05-29T15:48:03;20.90;66.90
25450;DHT22;13371;52.080;5.624;2023-05-29T15:50:28;20.90;65.30
25450;DHT22;13371;52.080;5.624;2023-05-29T15:52:54;20.80;66.80
25450;DHT22;13371;52.080;5.624;2023-05-29T15:55:20;20.80;67.80
25450;DHT22;13371;52.080;5.624;2023-05-29T15:57:46;20.80;65.30